createdAt,value
2019-01-21T00:00:24.620Z,0.00
2019-01-21T00:02:28.760Z,0.00
2019-01-21T00:03:28.990Z,0.00
2019-01-21T00:05:33.152Z,0.00
2019-01-21T00:06:33.385Z,0.00
2019-01-21T00:08:37.540Z,0.00
2019-01-21T00:09:37.759Z,0.00
2019-01-21T00:11:41.918Z,0.00
2019-01-21T00:12:42.152Z,0.00
2019-01-21T00:14:46.319Z,0.00
2019-01-21T00:15:46.571Z,0.00
2019-01-21T00:17:50.690Z,0.00
2019-01-21T00:18:50.924Z,0.00
2019-01-21T00:20:55.087Z,0.00
2019-01-21T00:21:55.319Z,0.00
2019-01-21T00:23:59.458Z,0.00
2019-01-21T00:24:59.694Z,0.00
2019-01-21T00:27:03.855Z,0.00
2019-01-21T00:28:04.089Z,0.00
2019-01-21T00:30:08.288Z,0.00
2019-01-21T00:31:08.489Z,0.00
2019-01-21T00:33:12.624Z,0.00
2019-01-21T00:34:12.858Z,0.00
2019-01-21T00:36:05.946Z,0.00
2019-01-21T00:37:06.182Z,0.00
2019-01-21T00:39:10.320Z,0.00
2019-01-21T00:40:10.552Z,0.00
2019-01-21T00:42:14.714Z,0.00
2019-01-21T00:43:15.010Z,0.00
2019-01-21T00:45:19.111Z,0.00
2019-01-21T00:46:19.351Z,0.00
2019-01-21T00:48:23.484Z,0.00
2019-01-21T00:49:23.718Z,0.00
2019-01-21T00:51:27.873Z,0.00
2019-01-21T00:52:28.119Z,0.00
2019-01-21T00:54:32.272Z,0.00
2019-01-21T00:55:32.497Z,0.00
2019-01-21T00:57:36.656Z,0.00
2019-01-21T00:58:36.888Z,0.00
2019-01-21T01:00:41.057Z,0.00
2019-01-21T01:01:41.290Z,0.00
2019-01-21T01:03:45.430Z,0.00
2019-01-21T01:04:45.656Z,0.00
2019-01-21T01:06:49.822Z,0.00
2019-01-21T01:07:50.056Z,0.00
2019-01-21T01:09:54.193Z,0.00
2019-01-21T01:10:54.430Z,0.00
2019-01-21T01:12:58.588Z,0.00
2019-01-21T01:13:58.821Z,0.00
2019-01-21T01:15:51.922Z,0.00
2019-01-21T01:16:52.155Z,0.00
2019-01-21T01:18:56.340Z,0.00
2019-01-21T01:19:56.532Z,0.00
2019-01-21T01:22:00.694Z,0.00
2019-01-21T01:23:00.931Z,0.00
2019-01-21T01:25:06.090Z,0.00
2019-01-21T01:26:06.324Z,0.00
2019-01-21T01:28:10.484Z,0.00
2019-01-21T01:29:10.718Z,0.00
2019-01-21T01:31:14.853Z,0.00
2019-01-21T01:32:15.090Z,0.00
2019-01-21T01:34:19.245Z,0.00
2019-01-21T01:35:19.480Z,0.00
2019-01-21T01:37:23.638Z,0.00
2019-01-21T01:38:23.880Z,0.00
2019-01-21T01:40:28.011Z,0.00
2019-01-21T01:41:28.243Z,0.00
2019-01-21T01:43:32.411Z,0.00
2019-01-21T01:44:32.641Z,0.00
2019-01-21T01:46:25.723Z,0.00
2019-01-21T01:47:25.951Z,0.00
2019-01-21T01:49:30.118Z,0.00
2019-01-21T01:50:30.355Z,0.00
2019-01-21T01:52:34.524Z,0.00
2019-01-21T01:53:34.756Z,0.00
2019-01-21T01:55:38.897Z,0.00
2019-01-21T01:56:39.127Z,0.00
2019-01-21T01:58:43.286Z,0.00
2019-01-21T01:59:43.519Z,0.00
2019-01-21T02:01:47.662Z,0.00
2019-01-21T02:02:47.892Z,0.00
2019-01-21T02:04:52.053Z,0.00
2019-01-21T02:05:52.287Z,0.00
2019-01-21T02:07:56.443Z,0.00
2019-01-21T02:08:56.683Z,0.00
2019-01-21T02:11:00.819Z,0.00
2019-01-21T02:12:01.056Z,0.00
2019-01-21T02:14:05.215Z,0.00
2019-01-21T02:15:05.445Z,0.00
2019-01-21T02:17:09.582Z,0.00
2019-01-21T02:18:09.817Z,0.00
2019-01-21T02:20:13.973Z,0.00
2019-01-21T02:21:14.205Z,0.00
2019-01-21T02:23:18.366Z,0.00
2019-01-21T02:24:18.599Z,0.00
2019-01-21T02:26:11.666Z,0.00
2019-01-21T02:27:11.900Z,0.00
2019-01-21T02:29:16.056Z,0.00
2019-01-21T02:30:16.290Z,0.00
2019-01-21T02:32:20.434Z,0.00
2019-01-21T02:33:20.664Z,0.00
2019-01-21T02:35:24.818Z,0.00
2019-01-21T02:36:25.052Z,0.00
2019-01-21T02:38:29.197Z,0.00
2019-01-21T02:39:29.423Z,0.00
2019-01-21T02:41:33.581Z,0.00
2019-01-21T02:42:33.818Z,0.00
2019-01-21T02:44:38.985Z,0.00
2019-01-21T02:45:39.219Z,0.00
2019-01-21T02:47:43.354Z,0.00
2019-01-21T02:48:43.584Z,0.00
2019-01-21T02:50:47.751Z,0.00
2019-01-21T02:51:47.980Z,0.00
2019-01-21T02:53:52.128Z,0.00
2019-01-21T02:54:52.352Z,0.00
2019-01-21T02:56:56.510Z,0.00
2019-01-21T02:57:56.742Z,0.00
2019-01-21T03:00:00.922Z,0.00
2019-01-21T03:01:01.146Z,0.00
2019-01-21T03:03:05.286Z,0.00
2019-01-21T03:04:05.521Z,0.00
2019-01-21T03:05:58.611Z,0.00
2019-01-21T03:06:58.842Z,0.00
2019-01-21T03:09:02.978Z,0.00
2019-01-21T03:10:03.211Z,0.00
2019-01-21T03:12:07.369Z,0.00
2019-01-21T03:13:07.602Z,0.00
2019-01-21T03:15:11.763Z,0.00
2019-01-21T03:16:11.996Z,0.00
2019-01-21T03:18:16.169Z,0.00
2019-01-21T03:19:16.387Z,0.00
2019-01-21T03:21:20.545Z,0.00
2019-01-21T03:22:20.780Z,0.00
2019-01-21T03:24:24.910Z,0.00
2019-01-21T03:25:25.143Z,0.00
2019-01-21T03:27:29.301Z,0.00
2019-01-21T03:28:29.533Z,0.00
2019-01-21T03:30:33.681Z,0.00
2019-01-21T03:31:33.917Z,0.00
2019-01-21T03:33:38.069Z,0.00
2019-01-21T03:34:38.300Z,0.00
2019-01-21T03:36:31.394Z,0.00
2019-01-21T03:37:31.621Z,0.00
2019-01-21T03:39:35.769Z,0.00
2019-01-21T03:40:35.990Z,0.00
2019-01-21T03:42:40.153Z,0.00
2019-01-21T03:43:40.385Z,0.00
2019-01-21T03:45:44.524Z,0.00
2019-01-21T03:46:44.758Z,0.00
2019-01-21T03:48:48.919Z,0.00
2019-01-21T03:49:49.153Z,0.00
2019-01-21T03:51:53.319Z,0.00
2019-01-21T03:52:53.547Z,0.00
2019-01-21T03:54:57.694Z,0.00
2019-01-21T03:55:57.934Z,0.00
2019-01-21T03:58:02.093Z,0.00
2019-01-21T03:59:02.325Z,0.00
2019-01-21T04:01:06.459Z,0.00
2019-01-21T04:02:06.694Z,0.00
2019-01-21T04:04:10.860Z,0.00
2019-01-21T04:05:11.097Z,0.00
2019-01-21T04:07:15.249Z,0.00
2019-01-21T04:08:15.480Z,0.00
2019-01-21T04:10:19.623Z,0.00
2019-01-21T04:11:19.855Z,0.00
2019-01-21T04:13:24.018Z,0.00
2019-01-21T04:14:24.251Z,0.00
2019-01-21T04:16:17.318Z,0.00
2019-01-21T04:17:17.559Z,0.00
2019-01-21T04:19:21.710Z,0.00
2019-01-21T04:20:21.943Z,0.00
2019-01-21T04:22:26.107Z,0.00
2019-01-21T04:23:26.335Z,0.00
2019-01-21T04:25:30.486Z,0.00
2019-01-21T04:26:30.708Z,0.00
2019-01-21T04:28:34.876Z,0.00
2019-01-21T04:29:35.109Z,0.00
2019-01-21T04:31:39.247Z,0.00
2019-01-21T04:32:39.483Z,0.00
2019-01-21T04:34:43.652Z,0.00
2019-01-21T04:35:43.886Z,0.00
2019-01-21T04:37:48.052Z,0.00
2019-01-21T04:38:48.284Z,0.00
2019-01-21T04:40:52.428Z,0.00
2019-01-21T04:41:52.662Z,0.00
2019-01-21T04:43:56.828Z,0.00
2019-01-21T04:44:57.064Z,0.00
2019-01-21T04:47:01.207Z,0.00
2019-01-21T04:48:01.434Z,0.00
2019-01-21T04:50:05.600Z,0.00
2019-01-21T04:51:05.832Z,0.00
2019-01-21T04:53:09.992Z,0.00
2019-01-21T04:54:10.223Z,0.00
2019-01-21T04:56:03.303Z,0.00
2019-01-21T04:57:03.538Z,0.00
2019-01-21T04:59:07.702Z,0.00
2019-01-21T05:00:07.982Z,0.00
2019-01-21T05:02:13.124Z,0.00
2019-01-21T05:03:13.352Z,0.00
2019-01-21T05:05:17.516Z,0.00
2019-01-21T05:06:17.754Z,0.00
2019-01-21T05:08:21.932Z,0.00
2019-01-21T05:09:22.171Z,0.00
2019-01-21T05:11:26.311Z,0.00
2019-01-21T05:12:26.561Z,0.00
2019-01-21T05:14:30.708Z,0.00
2019-01-21T05:15:30.943Z,0.00
2019-01-21T05:17:35.082Z,0.00
2019-01-21T05:18:41.161Z,0.00
2019-01-21T05:20:39.481Z,0.00
2019-01-21T05:21:39.718Z,0.00
2019-01-21T05:23:43.896Z,0.00
2019-01-21T05:24:44.134Z,0.00
2019-01-21T05:26:48.272Z,0.00
2019-01-21T05:27:48.508Z,0.00
2019-01-21T05:29:52.666Z,0.00
2019-01-21T05:30:52.904Z,0.00
2019-01-21T05:32:57.043Z,0.00
2019-01-21T05:33:57.280Z,0.00
2019-01-21T05:35:50.364Z,0.00
2019-01-21T05:36:50.610Z,0.00
2019-01-21T05:38:54.737Z,0.00
2019-01-21T05:39:54.971Z,0.00
2019-01-21T05:41:59.127Z,0.00
2019-01-21T05:42:59.359Z,0.00
2019-01-21T05:45:03.526Z,0.00
2019-01-21T05:46:03.761Z,0.00
2019-01-21T05:48:07.901Z,0.00
2019-01-21T05:49:08.132Z,0.00
2019-01-21T05:51:12.293Z,0.00
2019-01-21T05:52:12.525Z,0.00
2019-01-21T05:54:16.699Z,0.00
2019-01-21T05:55:17.070Z,0.00
2019-01-21T05:57:21.214Z,0.00
2019-01-21T05:58:21.450Z,0.00
2019-01-21T06:00:25.600Z,0.00
2019-01-21T06:01:25.831Z,0.00
2019-01-21T06:03:29.964Z,0.00
2019-01-21T06:04:30.197Z,0.00
2019-01-21T06:06:23.277Z,0.00
2019-01-21T06:07:23.515Z,0.00
2019-01-21T06:09:28.700Z,0.00
2019-01-21T06:10:28.940Z,0.00
2019-01-21T06:12:33.071Z,0.00
2019-01-21T06:13:33.302Z,0.00
2019-01-21T06:15:37.465Z,0.00
2019-01-21T06:16:37.702Z,0.00
2019-01-21T06:18:41.840Z,0.00
2019-01-21T06:19:42.070Z,0.00
2019-01-21T06:21:46.234Z,0.00
2019-01-21T06:22:46.460Z,0.00
2019-01-21T06:24:51.643Z,0.00
2019-01-21T06:25:51.878Z,0.00
2019-01-21T06:27:57.026Z,0.00
2019-01-21T06:28:57.259Z,0.00
2019-01-21T06:31:01.420Z,0.00
2019-01-21T06:32:01.666Z,0.00
2019-01-21T06:34:05.795Z,0.00
2019-01-21T06:35:06.028Z,0.00
2019-01-21T06:37:10.190Z,0.00
2019-01-21T06:38:10.424Z,0.00
2019-01-21T06:40:14.600Z,0.00
2019-01-21T06:41:14.831Z,0.00
2019-01-21T06:43:18.972Z,0.00
2019-01-21T06:44:19.223Z,0.00
2019-01-21T06:46:12.307Z,0.00
2019-01-21T06:47:12.538Z,0.00
2019-01-21T06:49:16.671Z,0.00
2019-01-21T06:50:16.916Z,0.00
2019-01-21T06:52:21.063Z,0.00
2019-01-21T06:53:21.295Z,0.00
2019-01-21T06:55:25.439Z,0.00
2019-01-21T06:56:25.673Z,0.00
2019-01-21T06:58:29.836Z,0.00
2019-01-21T06:59:30.070Z,0.00
2019-01-21T07:01:34.248Z,0.00
2019-01-21T07:02:35.200Z,0.00
2019-01-21T07:04:38.642Z,0.00
2019-01-21T07:05:38.881Z,5.63
2019-01-21T07:07:43.015Z,5.63
2019-01-21T07:08:43.250Z,5.63
2019-01-21T07:10:47.414Z,5.63
2019-01-21T07:11:47.651Z,5.63
2019-01-21T07:13:51.789Z,5.63
2019-01-21T07:14:52.026Z,5.63
2019-01-21T07:16:56.186Z,11.25
2019-01-21T07:17:56.420Z,11.25
2019-01-21T07:20:00.594Z,11.25
2019-01-21T07:21:00.815Z,11.25
2019-01-21T07:23:04.957Z,16.88
2019-01-21T07:24:05.187Z,16.88
2019-01-21T07:25:58.274Z,16.88
2019-01-21T07:26:58.508Z,16.88
2019-01-21T07:29:02.649Z,22.50
2019-01-21T07:30:04.303Z,22.50
2019-01-21T07:32:07.047Z,22.50
2019-01-21T07:33:07.280Z,22.50
2019-01-21T07:35:11.446Z,28.13
2019-01-21T07:36:11.680Z,28.13
2019-01-21T07:38:15.830Z,33.75
2019-01-21T07:39:16.069Z,33.75
2019-01-21T07:41:20.219Z,39.38
2019-01-21T07:42:20.447Z,39.38
2019-01-21T07:44:24.589Z,39.38
2019-01-21T07:45:24.819Z,39.38
2019-01-21T07:47:28.980Z,45.00
2019-01-21T07:48:29.211Z,45.00
2019-01-21T07:50:33.384Z,50.63
2019-01-21T07:51:33.615Z,50.63
2019-01-21T07:53:37.755Z,50.63
2019-01-21T07:54:37.986Z,56.25
2019-01-21T07:56:31.087Z,56.25
2019-01-21T07:57:31.307Z,61.88
2019-01-21T07:59:35.441Z,61.88
2019-01-21T08:00:35.676Z,67.50
2019-01-21T08:02:39.835Z,73.13
2019-01-21T08:03:40.067Z,73.13
2019-01-21T08:05:45.238Z,78.75
2019-01-21T08:06:45.488Z,78.75
2019-01-21T08:08:49.608Z,84.38
2019-01-21T08:09:49.839Z,90.00
2019-01-21T08:11:55.013Z,90.00
2019-01-21T08:12:55.244Z,90.00
2019-01-21T08:14:59.381Z,95.63
2019-01-21T08:15:59.612Z,95.63
2019-01-21T08:18:03.770Z,101.25
2019-01-21T08:19:04.002Z,106.88
2019-01-21T08:21:08.157Z,106.88
2019-01-21T08:22:08.387Z,106.88
2019-01-21T08:24:12.530Z,106.88
2019-01-21T08:25:12.756Z,112.50
2019-01-21T08:27:16.919Z,118.13
2019-01-21T08:28:17.286Z,118.13
2019-01-21T08:30:21.323Z,118.13
2019-01-21T08:31:21.565Z,118.13
2019-01-21T08:33:25.730Z,118.13
2019-01-21T08:34:25.965Z,123.75
2019-01-21T08:36:19.053Z,123.75
2019-01-21T08:37:19.281Z,123.75
2019-01-21T08:39:23.419Z,123.75
2019-01-21T08:40:23.651Z,123.75
2019-01-21T08:42:27.810Z,135.00
2019-01-21T08:43:28.036Z,140.63
2019-01-21T08:45:32.176Z,146.25
2019-01-21T08:46:32.409Z,146.25
2019-01-21T08:48:36.583Z,146.25
2019-01-21T08:49:36.802Z,151.88
2019-01-21T08:51:40.961Z,163.13
2019-01-21T08:52:41.192Z,163.13
2019-01-21T08:54:45.351Z,168.75
2019-01-21T08:55:45.567Z,168.75
2019-01-21T08:57:49.725Z,191.25
2019-01-21T08:58:49.954Z,196.88
2019-01-21T09:00:54.092Z,208.13
2019-01-21T09:01:54.323Z,202.50
2019-01-21T09:03:58.485Z,196.88
2019-01-21T09:04:58.716Z,196.88
2019-01-21T09:07:02.878Z,191.25
2019-01-21T09:08:03.108Z,196.88
2019-01-21T09:10:07.251Z,208.13
2019-01-21T09:11:07.485Z,219.38
2019-01-21T09:13:11.645Z,247.50
2019-01-21T09:14:11.874Z,258.75
2019-01-21T09:16:04.939Z,275.63
2019-01-21T09:17:05.170Z,281.25
2019-01-21T09:19:09.337Z,298.13
2019-01-21T09:20:10.886Z,309.38
2019-01-21T09:22:13.735Z,326.25
2019-01-21T09:23:13.971Z,320.63
2019-01-21T09:25:18.111Z,320.63
2019-01-21T09:26:18.343Z,326.25
2019-01-21T09:28:22.505Z,331.88
2019-01-21T09:29:22.738Z,331.88
2019-01-21T09:31:26.878Z,343.13
2019-01-21T09:32:27.110Z,354.38
2019-01-21T09:34:31.273Z,371.25
2019-01-21T09:35:31.504Z,371.25
2019-01-21T09:37:35.687Z,360.00
2019-01-21T09:38:35.926Z,354.38
2019-01-21T09:40:40.063Z,365.63
2019-01-21T09:41:40.296Z,376.88
2019-01-21T09:43:44.460Z,388.13
2019-01-21T09:44:44.697Z,388.13
2019-01-21T09:46:48.838Z,388.13
2019-01-21T09:47:49.072Z,388.13
2019-01-21T09:49:53.235Z,405.00
2019-01-21T09:50:53.467Z,416.25
2019-01-21T09:52:57.649Z,495.00
2019-01-21T09:53:57.887Z,540.00
2019-01-21T09:55:50.953Z,652.50
2019-01-21T09:56:51.187Z,675.00
2019-01-21T09:58:55.355Z,624.38
2019-01-21T09:59:55.590Z,601.88
2019-01-21T10:01:59.735Z,652.50
2019-01-21T10:02:59.972Z,686.25
2019-01-21T10:05:04.141Z,776.25
2019-01-21T10:06:04.374Z,742.50
2019-01-21T10:08:08.520Z,804.38
2019-01-21T10:09:08.753Z,961.88
2019-01-21T10:11:12.918Z,2283.75
2019-01-21T10:12:13.154Z,1203.75
2019-01-21T10:14:17.317Z,1400.63
2019-01-21T10:15:17.553Z,1119.38
2019-01-21T10:17:21.712Z,1248.75
2019-01-21T10:18:21.945Z,2008.13
2019-01-21T10:20:26.113Z,1411.88
2019-01-21T10:21:26.346Z,2058.75
2019-01-21T10:23:30.516Z,2368.13
2019-01-21T10:24:30.752Z,2790.00
2019-01-21T10:26:23.829Z,3251.25
2019-01-21T10:27:24.063Z,3223.13
2019-01-21T10:29:28.240Z,3307.50
2019-01-21T10:30:28.467Z,3240.00
2019-01-21T10:32:32.626Z,3301.88
2019-01-21T10:33:34.117Z,3228.75
2019-01-21T10:35:37.038Z,3037.50
2019-01-21T10:36:37.281Z,3352.50
2019-01-21T10:38:41.438Z,3346.88
2019-01-21T10:39:41.676Z,1389.38
2019-01-21T10:41:45.857Z,3155.63
2019-01-21T10:42:46.098Z,3240.00
2019-01-21T10:44:50.274Z,3015.00
2019-01-21T10:45:50.516Z,3346.88
2019-01-21T10:47:54.694Z,3391.88
2019-01-21T10:48:54.928Z,3481.88
2019-01-21T10:50:59.107Z,3560.63
2019-01-21T10:51:59.347Z,3526.88
2019-01-21T10:54:03.511Z,3566.25
2019-01-21T10:55:03.753Z,3571.88
2019-01-21T10:57:08.955Z,3538.13
2019-01-21T10:58:09.198Z,3476.25
2019-01-21T11:00:13.386Z,3515.63
2019-01-21T11:01:13.630Z,3532.50
2019-01-21T11:03:17.800Z,3571.88
2019-01-21T11:04:18.047Z,3543.75
2019-01-21T11:06:11.170Z,3549.38
2019-01-21T11:07:11.417Z,3588.75
2019-01-21T11:09:15.586Z,3639.38
2019-01-21T11:10:15.832Z,3701.25
2019-01-21T11:12:20.027Z,3763.13
2019-01-21T11:13:20.275Z,3796.88
2019-01-21T11:15:25.477Z,3841.88
2019-01-21T11:16:25.721Z,3864.38
2019-01-21T11:18:29.893Z,3836.25
2019-01-21T11:19:30.141Z,3802.50
2019-01-21T11:21:34.340Z,3723.75
2019-01-21T11:22:34.585Z,3701.25
2019-01-21T11:24:38.763Z,3673.13
2019-01-21T11:25:39.011Z,3695.63
2019-01-21T11:27:43.204Z,3684.38
2019-01-21T11:28:43.450Z,3729.38
2019-01-21T11:30:48.658Z,3808.13
2019-01-21T11:31:48.903Z,3763.13
2019-01-21T11:33:53.076Z,3656.25
2019-01-21T11:34:53.323Z,3701.25
2019-01-21T11:36:57.520Z,3656.25
2019-01-21T11:37:57.770Z,3701.25
2019-01-21T11:40:01.944Z,3661.88
2019-01-21T11:41:02.196Z,3498.75
2019-01-21T11:43:06.382Z,3577.50
2019-01-21T11:44:06.629Z,3898.13
2019-01-21T11:45:59.755Z,3847.50
2019-01-21T11:47:00.001Z,3780.00
2019-01-21T11:49:04.174Z,3690.00
2019-01-21T11:50:10.360Z,3718.13
2019-01-21T11:52:08.618Z,3712.50
2019-01-21T11:53:08.867Z,3791.25
2019-01-21T11:55:13.050Z,3757.50
2019-01-21T11:56:13.299Z,3802.50
2019-01-21T11:58:17.491Z,3504.38
2019-01-21T11:59:17.738Z,3695.63
2019-01-21T12:01:21.934Z,3701.25
2019-01-21T12:02:22.184Z,3684.38
2019-01-21T12:04:26.366Z,3521.25
2019-01-21T12:05:26.615Z,3476.25
2019-01-21T12:07:31.828Z,3420.00
2019-01-21T12:08:32.071Z,3358.13
2019-01-21T12:10:36.243Z,3487.50
2019-01-21T12:11:36.493Z,3588.75
2019-01-21T12:13:40.687Z,3628.13
2019-01-21T12:14:40.934Z,3498.75
2019-01-21T12:16:34.037Z,3459.38
2019-01-21T12:17:34.287Z,3583.13
2019-01-21T12:19:38.474Z,3493.13
2019-01-21T12:20:38.736Z,3588.75
2019-01-21T12:22:42.933Z,3397.50
2019-01-21T12:23:43.183Z,3521.25
2019-01-21T12:25:47.449Z,3470.63
2019-01-21T12:26:47.636Z,3476.25
2019-01-21T12:28:51.908Z,3397.50
2019-01-21T12:29:52.105Z,3448.13
2019-01-21T12:31:57.292Z,3425.63
2019-01-21T12:32:57.540Z,3363.75
2019-01-21T12:35:01.728Z,3470.63
2019-01-21T12:36:02.055Z,3391.88
2019-01-21T12:38:06.453Z,3279.38
2019-01-21T12:39:06.700Z,3166.88
2019-01-21T12:41:10.947Z,3223.13
2019-01-21T12:42:11.222Z,3144.38
2019-01-21T12:44:15.500Z,3178.13
2019-01-21T12:45:15.754Z,3268.13
2019-01-21T12:47:19.932Z,3442.50
2019-01-21T12:48:20.178Z,3391.88
2019-01-21T12:50:24.382Z,3335.63
2019-01-21T12:51:24.672Z,3363.75
2019-01-21T12:53:28.869Z,3369.38
2019-01-21T12:54:29.127Z,3318.75
2019-01-21T12:56:23.250Z,3318.75
2019-01-21T12:57:23.500Z,3273.75
2019-01-21T12:59:27.775Z,3262.50
2019-01-21T13:00:28.075Z,3200.63
2019-01-21T13:02:32.284Z,3161.25
2019-01-21T13:03:32.521Z,3110.63
2019-01-21T13:05:36.766Z,3071.25
2019-01-21T13:06:37.030Z,2947.50
2019-01-21T13:08:41.227Z,3048.75
2019-01-21T13:09:41.507Z,3071.25
2019-01-21T13:11:45.674Z,2964.38
2019-01-21T13:12:45.974Z,2998.13
2019-01-21T13:14:50.167Z,2998.13
2019-01-21T13:15:50.457Z,2953.13
2019-01-21T13:17:54.624Z,3037.50
2019-01-21T13:18:54.873Z,3031.88
2019-01-21T13:20:59.075Z,2998.13
2019-01-21T13:21:59.322Z,3003.75
2019-01-21T13:24:03.509Z,2896.88
2019-01-21T13:25:03.757Z,2829.38
2019-01-21T13:27:07.931Z,2812.50
2019-01-21T13:28:08.177Z,2823.75
2019-01-21T13:30:12.366Z,2677.50
2019-01-21T13:31:12.613Z,2649.38
2019-01-21T13:33:16.783Z,2548.13
2019-01-21T13:34:17.030Z,2542.50
2019-01-21T13:36:10.147Z,2548.13
2019-01-21T13:37:10.397Z,2593.13
2019-01-21T13:39:14.611Z,2525.63
2019-01-21T13:40:14.858Z,2368.13
2019-01-21T13:42:19.022Z,2340.00
2019-01-21T13:43:19.266Z,2334.38
2019-01-21T13:45:23.451Z,2075.63
2019-01-21T13:46:23.700Z,2019.38
2019-01-21T13:48:27.866Z,2064.38
2019-01-21T13:49:28.110Z,2165.63
2019-01-21T13:51:32.388Z,2019.38
2019-01-21T13:52:32.655Z,1884.38
2019-01-21T13:54:36.894Z,1935.00
2019-01-21T13:55:37.170Z,1912.50
2019-01-21T13:57:41.336Z,2013.75
2019-01-21T13:58:41.577Z,2047.50
2019-01-21T14:00:45.781Z,1906.88
2019-01-21T14:01:46.028Z,1856.25
2019-01-21T14:03:50.198Z,1912.50
2019-01-21T14:04:50.441Z,1822.50
2019-01-21T14:06:54.782Z,1648.13
2019-01-21T14:07:55.031Z,1760.63
2019-01-21T14:10:00.246Z,1687.50
2019-01-21T14:11:00.478Z,1743.75
2019-01-21T14:13:04.665Z,1738.13
2019-01-21T14:14:04.908Z,1760.63
2019-01-21T14:15:58.090Z,1715.63
2019-01-21T14:16:58.371Z,1586.25
2019-01-21T14:19:02.572Z,1575.00
2019-01-21T14:20:02.810Z,1625.63
2019-01-21T14:22:07.074Z,1580.63
2019-01-21T14:23:07.316Z,1569.38
2019-01-21T14:25:11.645Z,1546.88
2019-01-21T14:26:13.068Z,1530.00
2019-01-21T14:28:16.095Z,1501.88
2019-01-21T14:29:16.546Z,1473.75
2019-01-21T14:31:20.579Z,1417.50
2019-01-21T14:32:20.947Z,1395.00
2019-01-21T14:34:25.122Z,1366.88
2019-01-21T14:35:25.372Z,1338.75
2019-01-21T14:37:29.560Z,1310.63
2019-01-21T14:38:29.806Z,1282.50
2019-01-21T14:40:33.964Z,1203.75
2019-01-21T14:41:34.202Z,1170.00
2019-01-21T14:43:38.413Z,1130.63
2019-01-21T14:44:38.632Z,1080.00
2019-01-21T14:46:31.719Z,1023.75
2019-01-21T14:47:31.969Z,843.75
2019-01-21T14:49:36.149Z,489.38
2019-01-21T14:50:36.396Z,455.63
2019-01-21T14:52:40.612Z,427.50
2019-01-21T14:53:40.832Z,416.25
2019-01-21T14:55:45.995Z,399.38
2019-01-21T14:56:46.250Z,388.13
2019-01-21T14:58:50.421Z,365.63
2019-01-21T14:59:51.792Z,365.63
2019-01-21T15:01:54.810Z,337.50
2019-01-21T15:02:55.072Z,326.25
2019-01-21T15:04:59.242Z,309.38
2019-01-21T15:05:59.477Z,303.75
2019-01-21T15:08:03.656Z,286.88
2019-01-21T15:09:03.947Z,281.25
2019-01-21T15:11:08.048Z,264.38
2019-01-21T15:12:08.303Z,253.13
2019-01-21T15:14:12.466Z,241.88
2019-01-21T15:15:12.717Z,230.63
2019-01-21T15:17:16.921Z,219.38
2019-01-21T15:18:17.157Z,208.13
2019-01-21T15:20:21.375Z,202.50
2019-01-21T15:21:21.606Z,191.25
2019-01-21T15:23:25.773Z,180.00
2019-01-21T15:24:25.992Z,174.38
2019-01-21T15:26:19.031Z,157.50
2019-01-21T15:27:19.333Z,151.88
2019-01-21T15:29:23.513Z,140.63
2019-01-21T15:30:23.695Z,129.38
2019-01-21T15:32:27.847Z,118.13
2019-01-21T15:33:28.076Z,112.50
2019-01-21T15:35:33.288Z,95.63
2019-01-21T15:36:33.504Z,90.00
2019-01-21T15:38:37.858Z,78.75
2019-01-21T15:39:38.023Z,73.13
2019-01-21T15:41:42.055Z,61.88
2019-01-21T15:42:42.324Z,56.25
2019-01-21T15:44:46.498Z,45.00
2019-01-21T15:45:50.755Z,45.00
2019-01-21T15:47:50.867Z,33.75
2019-01-21T15:48:51.090Z,33.75
2019-01-21T15:50:55.255Z,28.13
2019-01-21T15:51:55.485Z,22.50
2019-01-21T15:53:59.669Z,22.50
2019-01-21T15:54:59.896Z,16.88
2019-01-21T15:57:05.061Z,16.88
2019-01-21T15:58:05.297Z,16.88
2019-01-21T16:00:09.474Z,11.25
2019-01-21T16:01:09.710Z,11.25
2019-01-21T16:03:13.869Z,5.63
2019-01-21T16:04:14.096Z,5.63
2019-01-21T16:06:07.193Z,5.63
2019-01-21T16:07:07.429Z,5.63
2019-01-21T16:09:11.593Z,5.63
2019-01-21T16:10:11.831Z,0.00
2019-01-21T16:12:15.984Z,0.00
2019-01-21T16:13:16.220Z,0.00
2019-01-21T16:15:20.396Z,0.00
2019-01-21T16:16:20.631Z,0.00
2019-01-21T16:18:24.778Z,0.00
2019-01-21T16:19:25.013Z,0.00
2019-01-21T16:21:30.196Z,0.00
2019-01-21T16:22:30.433Z,0.00
2019-01-21T16:24:34.630Z,0.00
2019-01-21T16:25:34.843Z,0.00
2019-01-21T16:27:38.992Z,0.00
2019-01-21T16:28:39.229Z,0.00
2019-01-21T16:30:43.430Z,0.00
2019-01-21T16:31:43.622Z,0.00
2019-01-21T16:33:47.768Z,0.00
2019-01-21T16:34:47.998Z,0.00
2019-01-21T16:36:52.198Z,0.00
2019-01-21T16:37:52.404Z,0.00
2019-01-21T16:39:56.572Z,0.00
2019-01-21T16:40:56.810Z,0.00
2019-01-21T16:43:00.950Z,0.00
2019-01-21T16:44:01.195Z,0.00
2019-01-21T16:45:54.288Z,0.00
2019-01-21T16:46:54.523Z,0.00
2019-01-21T16:48:58.674Z,0.00
2019-01-21T16:49:58.913Z,0.00
2019-01-21T16:52:03.081Z,0.00
2019-01-21T16:53:03.318Z,0.00
2019-01-21T16:55:07.486Z,0.00
2019-01-21T16:56:07.720Z,0.00
2019-01-21T16:58:11.865Z,0.00
2019-01-21T16:59:12.099Z,0.00
2019-01-21T17:01:16.263Z,0.00
2019-01-21T17:02:16.498Z,0.00
2019-01-21T17:04:20.640Z,0.00
2019-01-21T17:05:20.874Z,0.00
2019-01-21T17:07:25.030Z,0.00
2019-01-21T17:08:25.276Z,0.00
2019-01-21T17:10:29.439Z,0.00
2019-01-21T17:11:29.669Z,0.00
2019-01-21T17:13:33.817Z,0.00
2019-01-21T17:14:34.051Z,0.00
2019-01-21T17:16:27.142Z,0.00
2019-01-21T17:17:27.381Z,0.00
2019-01-21T17:19:31.528Z,0.00
2019-01-21T17:20:31.756Z,0.00
2019-01-21T17:22:35.945Z,0.00
2019-01-21T17:23:36.154Z,0.00
2019-01-21T17:25:40.333Z,0.00
2019-01-21T17:26:40.562Z,0.00
2019-01-21T17:28:44.715Z,0.00
2019-01-21T17:29:44.937Z,0.00
2019-01-21T17:31:49.111Z,0.00
2019-01-21T17:32:49.352Z,0.00
2019-01-21T17:34:53.487Z,0.00
2019-01-21T17:35:53.719Z,0.00
2019-01-21T17:37:57.890Z,0.00
2019-01-21T17:38:58.125Z,0.00
2019-01-21T17:41:02.265Z,0.00
2019-01-21T17:42:02.508Z,0.00
2019-01-21T17:44:06.657Z,0.00
2019-01-21T17:45:06.890Z,0.00
2019-01-21T17:47:11.060Z,0.00
2019-01-21T17:48:11.277Z,0.00
2019-01-21T17:50:15.420Z,0.00
2019-01-21T17:51:15.654Z,0.00
2019-01-21T17:53:19.825Z,0.00
2019-01-21T17:54:20.059Z,0.00
2019-01-21T17:56:13.128Z,0.00
2019-01-21T17:57:13.361Z,0.00
2019-01-21T17:59:17.523Z,0.00
2019-01-21T18:00:17.762Z,0.00
2019-01-21T18:02:21.922Z,0.00
2019-01-21T18:03:22.156Z,0.00
2019-01-21T18:05:26.300Z,0.00
2019-01-21T18:06:26.529Z,0.00
2019-01-21T18:08:38.211Z,0.00
2019-01-21T18:09:30.878Z,0.00
2019-01-21T18:11:37.767Z,0.00
2019-01-21T18:12:35.291Z,0.00
2019-01-21T18:14:39.513Z,0.00
2019-01-21T18:15:41.025Z,0.00
2019-01-21T18:17:43.939Z,0.00
2019-01-21T18:18:44.261Z,0.00
2019-01-21T18:20:48.419Z,0.00
2019-01-21T18:21:48.652Z,0.00
2019-01-21T18:23:52.888Z,0.00
2019-01-21T18:24:53.148Z,0.00
2019-01-21T18:26:57.316Z,0.00
2019-01-21T18:27:57.655Z,0.00
2019-01-21T18:30:02.138Z,0.00
2019-01-21T18:31:02.106Z,0.00
2019-01-21T18:33:06.298Z,0.00
2019-01-21T18:34:06.590Z,0.00
2019-01-21T18:35:59.657Z,0.00
2019-01-21T18:36:59.932Z,0.00
2019-01-21T18:39:04.094Z,0.00
2019-01-21T18:40:04.362Z,0.00
2019-01-21T18:42:08.530Z,0.00
2019-01-21T18:43:08.761Z,0.00
2019-01-21T18:45:12.921Z,0.00
2019-01-21T18:46:13.161Z,0.00
2019-01-21T18:48:17.376Z,0.00
2019-01-21T18:49:22.800Z,0.00
2019-01-21T18:51:21.793Z,0.00
2019-01-21T18:52:22.054Z,0.00
2019-01-21T18:54:26.317Z,0.00
2019-01-21T18:55:26.541Z,0.00
2019-01-21T18:57:30.759Z,0.00
2019-01-21T18:58:30.972Z,0.00
2019-01-21T19:00:36.160Z,0.00
2019-01-21T19:01:36.379Z,0.00
2019-01-21T19:03:40.553Z,0.00
2019-01-21T19:04:40.769Z,0.00
2019-01-21T19:06:33.858Z,0.00
2019-01-21T19:07:34.086Z,0.00
2019-01-21T19:09:38.247Z,0.00
2019-01-21T19:10:38.478Z,0.00
2019-01-21T19:12:42.621Z,0.00
2019-01-21T19:13:42.869Z,0.00
2019-01-21T19:15:48.039Z,0.00
2019-01-21T19:16:48.283Z,0.00
2019-01-21T19:18:52.448Z,0.00
2019-01-21T19:19:52.685Z,0.00
2019-01-21T19:21:56.818Z,0.00
2019-01-21T19:22:57.055Z,0.00
2019-01-21T19:25:01.212Z,0.00
2019-01-21T19:26:01.450Z,0.00
2019-01-21T19:28:05.572Z,0.00
2019-01-21T19:29:05.808Z,0.00
2019-01-21T19:31:09.973Z,0.00
2019-01-21T19:32:10.197Z,0.00
2019-01-21T19:34:14.357Z,0.00
2019-01-21T19:35:14.590Z,0.00
2019-01-21T19:37:18.733Z,0.00
2019-01-21T19:38:18.968Z,0.00
2019-01-21T19:40:23.125Z,0.00